createdAt,value
2022-11-11T00:03:15.188Z,19.33
2022-11-11T00:06:37.473Z,26.63
2022-11-11T00:10:00.135Z,31.25
2022-11-11T00:13:22.579Z,33.35
2022-11-11T00:17:04.286Z,29.73
2022-11-11T00:20:47.601Z,32.67
2022-11-11T00:24:39.311Z,37.08
2022-11-11T00:28:01.610Z,29.13
2022-11-11T00:31:24.473Z,34.45
2022-11-11T00:35:06.486Z,40.70
2022-11-11T00:38:47.056Z,42.95
2022-11-11T00:42:09.100Z,36.53
2022-11-11T00:45:31.228Z,22.30
2022-11-11T00:49:11.665Z,30.05
2022-11-11T00:52:34.211Z,39.27
2022-11-11T00:55:57.837Z,38.25
2022-11-11T00:59:20.507Z,39.92
2022-11-11T01:02:42.629Z,40.75
2022-11-11T01:06:05.919Z,38.10
2022-11-11T01:09:27.498Z,43.42
2022-11-11T01:12:50.047Z,39.63
2022-11-11T01:16:21.981Z,35.63
2022-11-11T01:19:44.548Z,38.10
2022-11-11T01:23:07.814Z,55.63
2022-11-11T01:26:31.642Z,35.42
2022-11-11T01:29:54.363Z,25.58
2022-11-11T01:33:16.601Z,26.53
2022-11-11T01:36:39.172Z,24.33
2022-11-11T01:40:01.697Z,18.67
2022-11-11T01:43:25.655Z,22.38
2022-11-11T01:46:56.834Z,23.17
2022-11-11T01:50:18.770Z,18.77
2022-11-11T01:53:41.810Z,14.82
2022-11-11T01:57:10.239Z,15.55
2022-11-11T02:00:33.042Z,10.80
2022-11-11T02:04:16.238Z,13.27
2022-11-11T02:07:40.823Z,11.83
2022-11-11T02:11:10.252Z,18.52
2022-11-11T02:14:40.862Z,16.92
2022-11-11T02:18:03.397Z,10.25
2022-11-11T02:21:38.299Z,15.25
2022-11-11T02:25:03.284Z,11.67
2022-11-11T02:28:29.295Z,10.40
2022-11-11T02:31:51.274Z,10.38
2022-11-11T02:35:21.160Z,11.60
2022-11-11T02:38:44.950Z,12.88
2022-11-11T02:42:11.301Z,13.40
2022-11-11T02:45:33.252Z,10.82
2022-11-11T02:48:55.945Z,11.80
2022-11-11T02:52:17.955Z,10.70
2022-11-11T02:55:40.333Z,10.23
2022-11-11T02:59:02.469Z,8.87
2022-11-11T03:02:29.043Z,9.20
2022-11-11T03:05:51.118Z,8.80
2022-11-11T03:09:13.940Z,6.65
2022-11-11T03:12:36.540Z,7.32
2022-11-11T03:15:59.105Z,5.83
2022-11-11T03:19:21.865Z,4.88
2022-11-11T03:22:59.478Z,4.20
2022-11-11T03:26:22.308Z,4.15
2022-11-11T03:29:44.545Z,4.75
2022-11-11T03:33:07.117Z,5.30
2022-11-11T03:36:49.581Z,7.22
2022-11-11T03:40:11.500Z,6.68
2022-11-11T03:43:38.939Z,5.18
2022-11-11T03:47:00.381Z,4.30
2022-11-11T03:50:23.540Z,4.37
2022-11-11T03:53:45.624Z,4.07
2022-11-11T03:57:26.707Z,4.90
2022-11-11T04:00:48.872Z,3.20
2022-11-11T04:04:29.973Z,2.95
2022-11-11T04:08:11.160Z,2.47
2022-11-11T04:11:38.192Z,3.20
2022-11-11T04:15:18.373Z,2.90
2022-11-11T04:18:59.510Z,4.07
2022-11-11T04:22:21.741Z,4.32
2022-11-11T04:25:50.488Z,5.05
2022-11-11T04:29:31.470Z,4.05
2022-11-11T04:32:53.985Z,3.75
2022-11-11T04:36:16.004Z,2.55
2022-11-11T04:39:56.702Z,2.78
2022-11-11T04:43:18.972Z,2.87
2022-11-11T04:46:41.130Z,5.72
2022-11-11T04:50:07.238Z,4.70
2022-11-11T04:53:31.830Z,3.42
2022-11-11T04:56:54.591Z,5.07
2022-11-11T05:00:19.637Z,2.83
2022-11-11T05:03:41.711Z,2.50
2022-11-11T05:07:22.200Z,2.65
2022-11-11T05:10:44.554Z,1.73
2022-11-11T05:14:26.157Z,2.45
2022-11-11T05:18:07.005Z,2.50
2022-11-11T05:21:32.724Z,2.53
2022-11-11T05:25:13.477Z,2.20
2022-11-11T05:28:35.722Z,1.95
2022-11-11T05:31:57.894Z,2.20
2022-11-11T05:35:20.723Z,2.90
2022-11-11T05:38:42.167Z,2.40
2022-11-11T05:42:05.116Z,2.00
2022-11-11T05:45:27.298Z,2.00
2022-11-11T05:49:16.184Z,2.47
2022-11-11T05:52:37.652Z,2.03
2022-11-11T05:56:00.440Z,2.08
2022-11-11T05:59:21.451Z,2.40
2022-11-11T06:02:43.933Z,1.58
2022-11-11T06:06:05.465Z,2.30
2022-11-11T06:09:27.746Z,2.50
2022-11-11T06:13:10.610Z,4.22
2022-11-11T06:16:31.639Z,4.05
2022-11-11T06:19:53.297Z,4.18
2022-11-11T06:23:14.862Z,3.70
2022-11-11T06:26:36.784Z,2.40
2022-11-11T06:30:20.131Z,3.75
2022-11-11T06:33:40.189Z,4.80
2022-11-11T06:37:02.179Z,3.45
2022-11-11T06:40:25.003Z,3.42
2022-11-11T06:43:47.605Z,4.40
2022-11-11T06:47:09.428Z,3.90
2022-11-11T06:50:32.753Z,4.05
2022-11-11T06:53:54.377Z,3.42
2022-11-11T06:57:17.010Z,2.85
2022-11-11T07:00:39.887Z,2.70
2022-11-11T07:04:01.929Z,4.85
2022-11-11T07:07:24.220Z,4.57
2022-11-11T07:10:48.705Z,3.92
2022-11-11T07:14:10.489Z,3.70
2022-11-11T07:17:32.923Z,3.60
2022-11-11T07:20:54.933Z,3.20
2022-11-11T07:24:17.651Z,3.80
2022-11-11T07:27:41.493Z,4.25
2022-11-11T07:31:03.451Z,4.78
2022-11-11T07:34:25.633Z,3.90
2022-11-11T07:37:48.182Z,5.10
2022-11-11T07:41:10.053Z,4.25
2022-11-11T07:44:32.679Z,4.95
2022-11-11T07:47:54.816Z,3.20
2022-11-11T07:51:16.760Z,4.37
2022-11-11T07:54:38.897Z,5.68
2022-11-11T07:58:01.462Z,6.70
2022-11-11T08:01:24.172Z,5.68
2022-11-11T08:04:49.952Z,5.72
2022-11-11T08:08:16.050Z,5.87
2022-11-11T08:11:57.957Z,3.67
2022-11-11T08:15:20.054Z,4.00
2022-11-11T08:18:43.217Z,4.70
2022-11-11T08:22:05.983Z,6.53
2022-11-11T08:25:29.320Z,5.20
2022-11-11T08:28:54.539Z,5.80
2022-11-11T08:32:16.971Z,4.90
2022-11-11T08:35:39.085Z,4.43
2022-11-11T08:39:01.666Z,3.20
2022-11-11T08:42:24.064Z,3.03
2022-11-11T08:45:47.000Z,5.95
2022-11-11T08:49:09.520Z,7.32
2022-11-11T08:52:40.032Z,8.43
2022-11-11T08:56:05.391Z,9.68
2022-11-11T08:59:27.236Z,11.27
2022-11-11T09:02:48.686Z,11.95
2022-11-11T09:06:11.286Z,9.65
2022-11-11T09:09:33.191Z,8.82
2022-11-11T09:13:00.146Z,8.77
2022-11-11T09:16:21.726Z,8.63
2022-11-11T09:19:44.167Z,9.88
2022-11-11T09:23:06.434Z,10.13
2022-11-11T09:26:29.346Z,8.88
2022-11-11T09:29:51.565Z,8.65
2022-11-11T09:33:13.493Z,7.53
2022-11-11T09:36:35.406Z,7.50
2022-11-11T09:39:57.588Z,13.00
2022-11-11T09:43:25.862Z,26.55
2022-11-11T09:47:15.740Z,33.33
2022-11-11T09:50:40.100Z,25.98
2022-11-11T09:54:08.152Z,27.38
2022-11-11T09:57:29.235Z,30.95
2022-11-11T10:01:02.230Z,25.35
2022-11-11T10:04:48.715Z,19.52
2022-11-11T10:08:24.733Z,22.35
2022-11-11T10:12:13.276Z,27.35
2022-11-11T10:15:44.814Z,23.30
2022-11-11T10:19:25.638Z,21.73
2022-11-11T10:22:52.761Z,25.65
2022-11-11T10:26:21.939Z,32.65
2022-11-11T10:29:45.347Z,39.97
2022-11-11T10:33:15.111Z,39.65
2022-11-11T10:36:44.833Z,31.85
2022-11-11T10:40:25.434Z,28.02
2022-11-11T10:43:50.568Z,30.83
2022-11-11T10:47:24.425Z,27.73
2022-11-11T10:50:51.979Z,21.02
2022-11-11T10:54:26.772Z,17.27
2022-11-11T10:57:58.712Z,17.10
2022-11-11T11:01:31.923Z,22.75
2022-11-11T11:05:00.026Z,24.48
2022-11-11T11:08:26.970Z,25.48
2022-11-11T11:12:01.685Z,32.73
2022-11-11T11:15:27.562Z,34.65
2022-11-11T11:19:29.179Z,28.48
2022-11-11T11:22:53.685Z,28.42
2022-11-11T11:26:16.333Z,28.67
2022-11-11T11:29:43.571Z,24.70
2022-11-11T11:33:07.240Z,29.25
2022-11-11T11:36:29.169Z,22.20
2022-11-11T11:40:03.014Z,18.20
2022-11-11T11:43:36.499Z,15.23
2022-11-11T11:47:26.265Z,17.80
2022-11-11T11:50:55.746Z,33.55
2022-11-11T11:54:28.632Z,29.33
2022-11-11T11:57:53.625Z,26.70
2022-11-11T12:01:45.402Z,14.63
2022-11-11T12:05:34.065Z,9.05
2022-11-11T12:09:02.429Z,12.57
2022-11-11T12:12:48.534Z,14.98
2022-11-11T12:16:16.073Z,13.75
2022-11-11T12:19:49.671Z,13.52
2022-11-11T12:23:29.113Z,12.27
2022-11-11T12:27:15.065Z,11.80
2022-11-11T12:30:41.535Z,11.93
2022-11-11T12:34:05.497Z,9.80
2022-11-11T12:37:55.813Z,11.37
2022-11-11T12:41:26.574Z,13.68
2022-11-11T12:45:24.092Z,11.80
2022-11-11T12:49:09.304Z,9.95
2022-11-11T12:52:46.491Z,8.90
2022-11-11T12:56:32.155Z,8.30
2022-11-11T13:00:21.578Z,6.53
2022-11-11T13:03:56.919Z,5.75
2022-11-11T13:07:43.693Z,6.57
2022-11-11T13:11:32.189Z,4.70
2022-11-11T13:15:12.866Z,5.35
2022-11-11T13:19:06.808Z,5.13
2022-11-11T13:22:34.274Z,3.97
2022-11-11T13:26:03.925Z,4.80
2022-11-11T13:29:43.996Z,5.97
2022-11-11T13:33:23.494Z,5.03
2022-11-11T13:36:50.838Z,3.73
2022-11-11T13:40:38.416Z,3.60
2022-11-11T13:44:05.515Z,4.10
2022-11-11T13:47:35.659Z,4.50
2022-11-11T13:51:29.040Z,5.03
2022-11-11T13:55:00.797Z,13.30
2022-11-11T13:58:34.089Z,7.35
2022-11-11T14:02:30.779Z,7.93
2022-11-11T14:06:14.745Z,8.53
2022-11-11T14:09:56.663Z,10.40
2022-11-11T14:13:26.476Z,20.38
2022-11-11T14:16:55.279Z,28.85
2022-11-11T14:20:37.780Z,21.00
2022-11-11T14:23:59.674Z,15.45
2022-11-11T14:27:34.959Z,23.58
2022-11-11T14:31:22.859Z,21.33
2022-11-11T14:34:53.693Z,18.73
2022-11-11T14:38:29.484Z,24.15
2022-11-11T14:41:55.993Z,16.15
2022-11-11T14:45:46.972Z,10.87
2022-11-11T14:49:09.566Z,13.27
2022-11-11T14:52:41.654Z,21.15
2022-11-11T14:56:03.802Z,15.27
2022-11-11T14:59:28.479Z,19.60
2022-11-11T15:03:10.334Z,17.40
2022-11-11T15:06:43.133Z,17.15
2022-11-11T15:10:34.796Z,14.33
2022-11-11T15:14:22.290Z,15.95
2022-11-11T15:18:18.562Z,18.33
2022-11-11T15:21:51.783Z,19.23
2022-11-11T15:25:31.994Z,20.45
2022-11-11T15:29:11.890Z,18.85
2022-11-11T15:32:41.410Z,18.40
2022-11-11T15:36:14.269Z,17.77
2022-11-11T15:39:48.479Z,18.80
2022-11-11T15:43:19.527Z,15.88
2022-11-11T15:46:43.731Z,13.10
2022-11-11T15:50:16.570Z,13.23
2022-11-11T15:53:38.093Z,12.93
2022-11-11T15:57:00.883Z,12.05
2022-11-11T16:00:27.549Z,11.97
2022-11-11T16:03:50.078Z,12.30
2022-11-11T16:07:26.491Z,13.77
2022-11-11T16:11:02.061Z,13.60
2022-11-11T16:14:33.442Z,12.27
2022-11-11T16:18:00.274Z,12.35
2022-11-11T16:21:26.335Z,12.52
2022-11-11T16:24:49.887Z,11.30
2022-11-11T16:28:13.803Z,10.32
2022-11-11T16:31:41.006Z,9.93
2022-11-11T16:35:35.644Z,9.80
2022-11-11T16:39:20.342Z,10.18
2022-11-11T16:42:43.342Z,9.57
2022-11-11T16:46:08.864Z,8.70
2022-11-11T16:49:44.147Z,7.63
2022-11-11T16:53:05.889Z,6.88
2022-11-11T16:56:31.506Z,7.78
2022-11-11T17:00:02.022Z,8.17
2022-11-11T17:03:28.458Z,8.45
2022-11-11T17:07:00.336Z,8.02
2022-11-11T17:10:23.929Z,8.05
2022-11-11T17:13:47.092Z,7.97
2022-11-11T17:17:10.826Z,8.55
2022-11-11T17:20:33.222Z,7.65
2022-11-11T17:23:55.563Z,7.83
2022-11-11T17:27:18.039Z,6.97
2022-11-11T17:30:40.009Z,7.80
2022-11-11T17:34:10.186Z,7.78
2022-11-11T17:37:38.719Z,7.80
2022-11-11T17:40:59.857Z,9.23
2022-11-11T17:44:21.831Z,9.38
2022-11-11T17:47:44.574Z,8.53
2022-11-11T17:51:07.052Z,10.68
2022-11-11T17:54:29.524Z,11.52
2022-11-11T17:57:51.444Z,11.87
2022-11-11T18:01:16.293Z,9.30
2022-11-11T18:04:38.632Z,11.70
2022-11-11T18:07:59.824Z,10.13
2022-11-11T18:11:22.144Z,9.43
2022-11-11T18:14:44.481Z,9.68
2022-11-11T18:18:06.378Z,8.98
2022-11-11T18:21:28.913Z,10.37
2022-11-11T18:24:51.190Z,12.40
2022-11-11T18:28:13.364Z,11.73
2022-11-11T18:31:36.153Z,9.30
2022-11-11T18:34:58.373Z,9.05
2022-11-11T18:38:19.555Z,8.75
2022-11-11T18:41:41.902Z,7.93
2022-11-11T18:45:04.442Z,12.20
2022-11-11T18:48:26.407Z,9.55
2022-11-11T18:51:47.888Z,7.88
2022-11-11T18:55:10.252Z,6.63
2022-11-11T18:58:33.842Z,7.00
2022-11-11T19:01:56.216Z,6.07
2022-11-11T19:05:18.646Z,4.93
2022-11-11T19:08:40.757Z,5.38
2022-11-11T19:12:02.965Z,5.20
2022-11-11T19:15:24.726Z,5.22
2022-11-11T19:18:47.032Z,5.38
2022-11-11T19:22:09.600Z,5.57
2022-11-11T19:25:33.309Z,7.07
2022-11-11T19:28:56.455Z,8.70
2022-11-11T19:32:18.469Z,7.85
2022-11-11T19:35:40.703Z,8.40
2022-11-11T19:39:03.644Z,7.97
2022-11-11T19:42:26.197Z,7.95
2022-11-11T19:45:48.551Z,7.70
2022-11-11T19:49:10.967Z,6.32
2022-11-11T19:52:33.017Z,13.38
2022-11-11T19:56:03.877Z,8.18
2022-11-11T19:59:25.580Z,10.60
2022-11-11T20:02:47.909Z,9.13
2022-11-11T20:06:39.641Z,8.70
2022-11-11T20:10:01.014Z,15.48
2022-11-11T20:13:22.319Z,16.60
2022-11-11T20:16:44.071Z,18.77
2022-11-11T20:20:05.753Z,15.35
2022-11-11T20:23:28.320Z,16.38
2022-11-11T20:26:52.358Z,12.70
2022-11-11T20:30:15.310Z,11.93
2022-11-11T20:33:37.174Z,10.95
2022-11-11T20:36:58.884Z,7.10
2022-11-11T20:40:20.965Z,9.07
2022-11-11T20:43:45.096Z,9.90
2022-11-11T20:47:07.146Z,7.00
2022-11-11T20:50:28.518Z,8.68
2022-11-11T20:53:55.300Z,10.23
2022-11-11T20:57:17.595Z,4.65
2022-11-11T21:00:39.992Z,9.02
2022-11-11T21:04:02.521Z,10.30
2022-11-11T21:07:24.696Z,14.23
2022-11-11T21:10:46.935Z,13.63
2022-11-11T21:14:09.459Z,11.65
2022-11-11T21:17:31.931Z,12.63
2022-11-11T21:20:54.139Z,10.83
2022-11-11T21:24:15.653Z,11.27
2022-11-11T21:27:37.388Z,10.52
2022-11-11T21:31:00.718Z,13.05
2022-11-11T21:34:22.706Z,13.60
2022-11-11T21:37:45.068Z,11.85
2022-11-11T21:41:21.034Z,12.18
2022-11-11T21:44:41.911Z,11.77
2022-11-11T21:48:04.541Z,8.60
2022-11-11T21:51:29.966Z,8.52
2022-11-11T21:54:51.026Z,7.80
2022-11-11T21:58:13.657Z,7.10
2022-11-11T22:01:40.399Z,8.05
2022-11-11T22:05:02.951Z,8.70
2022-11-11T22:08:25.177Z,6.72
2022-11-11T22:11:48.075Z,8.02
2022-11-11T22:15:10.457Z,10.57
2022-11-11T22:18:33.294Z,9.40
2022-11-11T22:21:55.199Z,9.48
2022-11-11T22:25:18.272Z,9.32
2022-11-11T22:28:40.360Z,11.10
2022-11-11T22:32:01.525Z,15.82
2022-11-11T22:35:23.806Z,15.70
2022-11-11T22:38:47.524Z,14.00
2022-11-11T22:42:09.608Z,10.20
2022-11-11T22:45:30.784Z,15.30
2022-11-11T22:49:04.539Z,10.75
2022-11-11T22:52:26.021Z,9.13
2022-11-11T22:55:47.269Z,12.75
2022-11-11T22:59:08.869Z,19.63
2022-11-11T23:02:31.524Z,18.67
2022-11-11T23:05:53.961Z,15.90
2022-11-11T23:09:15.074Z,13.82
2022-11-11T23:12:37.784Z,15.32
2022-11-11T23:16:00.015Z,16.95
2022-11-11T23:19:27.042Z,18.20
2022-11-11T23:22:50.431Z,22.15
2022-11-11T23:26:16.501Z,22.10
2022-11-11T23:29:38.568Z,9.15
2022-11-11T23:33:00.262Z,14.73
2022-11-11T23:36:24.437Z,13.43
2022-11-11T23:39:46.467Z,16.52
2022-11-11T23:43:08.755Z,15.30
2022-11-11T23:46:31.393Z,11.75
2022-11-11T23:49:53.708Z,12.80
2022-11-11T23:53:17.556Z,19.48
2022-11-11T23:56:39.596Z,16.77
